Time;durP1;ratioP1;P1;durP2;ratioP2;P2;SDS_P1;SDS_P2;PMS_P1;PMS_P2;Temp;Humidity;BMP_temperature;BMP_pressure;BME280_temperature;BME280_humidity;BME280_pressure;Samples;Min_cycle;Max_cycle;Signal;HPM_P1;HPM_P2
2023/09/06 00:01:06;;;;;;;14.90;13.27;;;21.60;86.00;;;;;;4945479;28;20059;-74
2023/09/06 00:03:32;;;;;;;16.63;14.73;;;21.60;86.00;;;;;;4944426;28;20405;-74
2023/09/06 00:05:58;;;;;;;14.60;12.50;;;21.60;86.00;;;;;;4940549;28;20034;-74
2023/09/06 00:08:24;;;;;;;16.20;14.52;;;21.60;86.20;;;;;;4943308;28;20040;-74
2023/09/06 00:10:50;;;;;;;15.40;13.85;;;21.50;86.20;;;;;;4943614;28;20028;-75
2023/09/06 00:13:18;;;;;;;14.63;12.90;;;21.40;86.20;;;;;;4955550;28;20038;-74
2023/09/06 00:15:45;;;;;;;15.10;13.35;;;21.40;86.40;;;;;;4965139;28;20041;-74
2023/09/06 00:18:11;;;;;;;14.15;12.65;;;21.40;86.50;;;;;;4953411;28;20142;-74
2023/09/06 00:20:38;;;;;;;15.85;13.43;;;21.40;86.50;;;;;;4953650;28;20210;-74
2023/09/06 00:23:05;;;;;;;15.82;13.75;;;21.30;86.50;;;;;;4948029;28;20130;-74
2023/09/06 00:25:32;;;;;;;14.50;12.27;;;21.30;86.60;;;;;;4952332;28;20023;-75
2023/09/06 00:28:00;;;;;;;13.63;12.23;;;21.30;86.60;;;;;;4939392;28;20036;-74
2023/09/06 00:30:26;;;;;;;14.93;12.82;;;21.20;86.60;;;;;;4945786;28;20039;-74
2023/09/06 00:32:52;;;;;;;13.93;12.43;;;21.30;86.70;;;;;;4952272;28;20537;-74
2023/09/06 00:35:19;;;;;;;13.52;12.13;;;21.30;86.70;;;;;;4944493;28;20037;-74
2023/09/06 00:37:45;;;;;;;16.00;12.80;;;21.20;86.80;;;;;;4947277;28;20047;-74
2023/09/06 00:40:18;;;;;;;18.33;14.10;;;21.20;86.70;;;;;;4952352;28;20032;-73
2023/09/06 00:42:52;;;;;;;15.82;13.57;;;21.20;86.70;;;;;;4964690;28;20044;-74
2023/09/06 00:45:26;;;;;;;14.23;12.63;;;21.20;86.70;;;;;;4940381;28;20581;-74
2023/09/06 00:47:52;;;;;;;;;;;21.10;86.70;;;;;;4941140;28;20070;-73
2023/09/06 00:50:18;;;;;;;15.10;12.93;;;21.10;86.60;;;;;;4938933;28;20360;-75
2023/09/06 00:52:45;;;;;;;13.82;12.38;;;21.10;86.60;;;;;;4943773;28;20492;-73
2023/09/06 00:55:11;;;;;;;15.07;12.13;;;21.10;86.50;;;;;;4937000;28;20032;-74
2023/09/06 00:57:38;;;;;;;14.73;12.63;;;21.10;86.50;;;;;;4938585;28;20039;-74
2023/09/06 01:00:12;;;;;;;13.85;12.45;;;21.10;86.60;;;;;;4942144;28;20036;-74
2023/09/06 01:02:38;;;;;;;12.88;11.00;;;21.00;86.70;;;;;;4960228;28;20044;-74
2023/09/06 01:05:04;;;;;;;14.60;12.00;;;21.00;86.70;;;;;;4943522;28;20437;-73
2023/09/06 01:07:34;;;;;;;15.90;13.15;;;21.00;86.70;;;;;;4934120;28;20035;-74
2023/09/06 01:10:02;;;;;;;14.60;12.23;;;21.00;86.70;;;;;;4938946;28;20027;-74
2023/09/06 01:12:28;;;;;;;14.23;12.25;;;21.00;86.70;;;;;;4940681;28;20086;-75
2023/09/06 01:14:54;;;;;;;14.30;12.82;;;20.90;86.70;;;;;;4943975;28;20036;-74
2023/09/06 01:17:24;;;;;;;13.02;11.27;;;20.90;86.70;;;;;;4940826;28;20058;-75
2023/09/06 01:19:54;;;;;;;14.85;11.93;;;20.90;86.80;;;;;;4940657;28;20038;-74
2023/09/06 01:22:26;;;;;;;15.15;11.20;;;20.80;86.70;;;;;;4938305;28;20039;-74
2023/09/06 01:24:52;;;;;;;13.63;10.70;;;20.90;86.70;;;;;;4936484;28;20115;-74
2023/09/06 01:27:18;;;;;;;13.25;11.73;;;20.80;86.70;;;;;;4939281;28;20047;-74
2023/09/06 01:29:44;;;;;;;13.73;12.32;;;20.80;86.70;;;;;;4935596;28;20634;-74
2023/09/06 01:32:10;;;;;;;14.23;12.73;;;20.80;86.60;;;;;;4938733;28;20050;-74
2023/09/06 01:34:35;;;;;;;14.35;12.85;;;20.70;86.60;;;;;;4938265;28;20015;-74
2023/09/06 01:37:01;;;;;;;13.90;12.35;;;20.70;86.70;;;;;;4948182;28;20062;-75
2023/09/06 01:39:27;;;;;;;14.93;13.07;;;20.60;86.80;;;;;;4944650;28;20027;-74
2023/09/06 01:41:52;;;;;;;13.73;11.27;;;20.60;86.80;;;;;;4945754;28;20050;-74
2023/09/06 01:44:18;;;;;;;14.65;11.07;;;20.60;86.90;;;;;;4943968;28;20054;-74
2023/09/06 01:46:45;;;;;;;13.15;11.35;;;20.60;87.00;;;;;;4945433;28;20035;-74
2023/09/06 01:49:11;;;;;;;11.90;10.13;;;20.60;87.00;;;;;;4949417;28;20076;-74
2023/09/06 01:51:37;;;;;;;13.30;11.32;;;20.60;86.90;;;;;;4951968;28;20030;-74
2023/09/06 01:54:07;;;;;;;13.65;12.13;;;20.60;86.80;;;;;;4961390;28;20101;-75
2023/09/06 01:56:33;;;;;;;12.63;11.23;;;20.60;86.70;;;;;;4960684;28;20044;-74
2023/09/06 01:58:58;;;;;;;13.13;10.90;;;20.60;86.70;;;;;;4961470;28;20413;-74
2023/09/06 02:01:24;;;;;;;11.90;10.63;;;20.60;86.70;;;;;;4967291;28;20065;-74
2023/09/06 02:03:50;;;;;;;12.63;10.43;;;20.50;86.70;;;;;;4960583;28;20491;-74
2023/09/06 02:06:16;;;;;;;12.18;10.68;;;20.50;86.70;;;;;;4958547;28;20069;-74
2023/09/06 02:08:41;;;;;;;13.25;11.45;;;20.50;86.60;;;;;;4959760;28;20035;-74
2023/09/06 02:11:07;;;;;;;14.13;11.80;;;20.50;86.50;;;;;;4963292;28;20183;-74
2023/09/06 02:13:33;;;;;;;13.38;11.73;;;20.50;86.50;;;;;;4959739;28;20043;-74
2023/09/06 02:16:02;;;;;;;12.57;11.00;;;20.50;86.40;;;;;;4960175;28;20645;-73
2023/09/06 02:18:28;;;;;;;13.35;11.48;;;20.40;86.40;;;;;;4962821;28;20038;-74
2023/09/06 02:20:56;;;;;;;12.52;11.00;;;20.40;86.50;;;;;;4961277;28;20423;-74
2023/09/06 02:23:22;;;;;;;11.40;10.20;;;20.40;86.60;;;;;;4944143;28;20036;-74
2023/09/06 02:25:48;;;;;;;11.90;10.30;;;20.30;86.60;;;;;;4938679;28;20035;-74
2023/09/06 02:28:17;;;;;;;11.95;10.27;;;20.30;86.60;;;;;;4938266;28;20524;-74
2023/09/06 02:30:43;;;;;;;11.50;10.07;;;20.30;86.60;;;;;;4947993;28;20115;-74
2023/09/06 02:33:14;;;;;;;12.45;10.13;;;20.30;86.50;;;;;;4942385;28;20032;-74
2023/09/06 02:35:40;;;;;;;11.20;9.93;;;20.30;86.50;;;;;;4961386;28;20023;-74
2023/09/06 02:38:08;;;;;;;10.93;9.73;;;20.30;86.40;;;;;;5027976;28;20058;-75
2023/09/06 02:40:34;;;;;;;12.27;10.25;;;20.30;86.30;;;;;;4936839;28;20708;-74
2023/09/06 02:43:00;;;;;;;12.23;10.02;;;20.30;86.40;;;;;;4938764;28;20484;-74
2023/09/06 02:45:36;;;;;;;11.57;9.38;;;20.30;86.40;;;;;;4939598;29;20162;-74
2023/09/06 02:48:12;;;;;;;11.48;9.35;;;20.20;86.30;;;;;;4940531;28;20043;-74
2023/09/06 02:50:39;;;;;;;11.85;8.90;;;20.20;86.20;;;;;;4935851;28;20271;-74
2023/09/06 02:53:15;;;;;;;12.52;10.05;;;20.20;86.20;;;;;;4940082;28;20071;-74
2023/09/06 02:55:41;;;;;;;11.07;9.13;;;20.20;86.10;;;;;;4958516;28;20633;-75
2023/09/06 02:58:07;;;;;;;10.90;9.38;;;20.10;86.20;;;;;;4953796;28;20039;-74
2023/09/06 03:00:35;;;;;;;12.05;9.23;;;20.20;86.10;;;;;;4954752;28;20130;-75
2023/09/06 03:03:07;;;;;;;11.13;8.73;;;20.10;86.10;;;;;;4948880;28;20465;-74
2023/09/06 03:05:41;;;;;;;12.27;8.63;;;20.10;86.10;;;;;;4955536;28;20027;-74
2023/09/06 03:08:07;;;;;;;10.10;8.60;;;20.10;85.90;;;;;;4945781;28;20047;-74
2023/09/06 03:10:34;;;;;;;15.80;9.75;;;20.10;85.90;;;;;;4957945;28;20135;-74
2023/09/06 03:13:00;;;;;;;12.82;10.20;;;20.10;86.00;;;;;;4959936;28;20062;-75
2023/09/06 03:15:28;;;;;;;13.05;9.15;;;20.10;86.10;;;;;;4955948;28;20035;-75
2023/09/06 03:18:02;;;;;;;10.38;8.70;;;20.00;86.10;;;;;;4968683;28;20070;-75
2023/09/06 03:20:34;;;;;;;12.00;9.80;;;20.10;86.20;;;;;;4969047;28;20025;-74
2023/09/06 03:23:17;;;;;;;11.48;8.68;;;20.00;86.10;;;;;;4962267;28;20465;-75
2023/09/06 03:25:57;;;;;;;14.77;11.10;;;20.10;86.00;;;;;;4971495;28;20031;-74
2023/09/06 03:28:25;;;;;;;12.98;10.35;;;20.00;85.90;;;;;;4975078;28;20071;-74
2023/09/06 03:30:53;;;;;;;14.85;11.10;;;20.00;85.80;;;;;;4975754;28;20028;-74
2023/09/06 03:33:19;;;;;;;11.70;10.00;;;19.90;85.90;;;;;;4955762;28;20035;-74
2023/09/06 03:35:48;;;;;;;12.48;9.65;;;19.90;85.90;;;;;;4993094;28;20138;-74
2023/09/06 03:38:15;;;;;;;13.52;10.52;;;19.90;85.90;;;;;;4979760;28;20545;-75
2023/09/06 03:40:42;;;;;;;15.48;11.73;;;19.90;86.10;;;;;;4979719;28;20076;-73
2023/09/06 03:43:19;;;;;;;13.30;11.32;;;19.90;86.20;;;;;;4972996;28;20043;-73
2023/09/06 03:45:50;;;;;;;12.93;10.32;;;19.80;86.30;;;;;;4972286;28;20019;-75
2023/09/06 03:48:24;;;;;;;12.25;10.57;;;19.70;86.40;;;;;;4975163;28;20035;-74
2023/09/06 03:50:57;;;;;;;13.07;10.70;;;19.70;86.60;;;;;;4949369;28;20019;-74
2023/09/06 03:53:27;;;;;;;12.30;9.98;;;19.80;86.70;;;;;;4973136;28;20044;-75
2023/09/06 03:55:57;;;;;;;10.30;9.20;;;19.70;86.70;;;;;;4952722;28;20599;-75
2023/09/06 03:58:23;;;;;;;10.30;8.85;;;19.70;86.80;;;;;;4956220;28;20555;-74
2023/09/06 04:00:51;;;;;;;12.88;9.40;;;19.70;86.80;;;;;;4963091;28;20027;-75
2023/09/06 04:03:18;;;;;;;12.00;9.45;;;19.70;86.90;;;;;;4964310;28;20051;-74
2023/09/06 04:05:45;;;;;;;13.35;10.00;;;19.70;86.90;;;;;;4962716;28;20023;-74
2023/09/06 04:08:17;;;;;;;13.13;10.10;;;19.60;86.70;;;;;;4963950;28;20095;-74
2023/09/06 04:10:44;;;;;;;10.80;8.98;;;19.60;86.80;;;;;;4961062;28;20038;-73
2023/09/06 04:13:12;;;;;;;12.52;9.80;;;19.60;86.90;;;;;;4962271;28;20499;-75
2023/09/06 04:15:38;;;;;;;11.35;9.80;;;19.60;87.00;;;;;;4959805;28;20102;-75
2023/09/06 04:18:06;;;;;;;11.75;9.50;;;19.50;87.00;;;;;;4954404;28;20065;-75
2023/09/06 04:20:36;;;;;;;11.93;9.68;;;19.50;87.10;;;;;;4942843;28;20027;-74
2023/09/06 04:23:06;;;;;;;11.98;9.55;;;19.40;87.20;;;;;;4953237;28;20052;-74
2023/09/06 04:25:33;;;;;;;11.18;9.55;;;19.40;87.10;;;;;;4952112;28;20023;-74
2023/09/06 04:28:01;;;;;;;13.13;9.65;;;19.40;87.20;;;;;;4942128;28;20055;-74
2023/09/06 04:30:28;;;;;;;15.18;11.05;;;19.40;87.30;;;;;;4942340;28;20030;-74
2023/09/06 04:32:57;;;;;;;14.38;11.77;;;19.30;87.40;;;;;;4936346;28;20051;-73
2023/09/06 04:35:31;;;;;;;13.77;11.60;;;19.30;87.40;;;;;;4937463;28;20089;-74
2023/09/06 04:37:57;;;;;;;13.05;11.57;;;19.30;87.50;;;;;;4940943;28;20086;-75
2023/09/06 04:40:22;;;;;;;14.20;12.27;;;19.20;87.70;;;;;;4943137;28;20450;-75
2023/09/06 04:42:48;;;;;;;15.55;12.07;;;19.30;87.80;;;;;;4937728;28;20496;-75
2023/09/06 04:45:14;;;;;;;18.73;13.80;;;19.20;87.80;;;;;;4944420;28;20031;-74
2023/09/06 04:47:43;;;;;;;15.02;13.43;;;19.20;87.90;;;;;;4941093;28;20428;-74
2023/09/06 04:50:12;;;;;;;14.80;13.07;;;19.30;88.00;;;;;;4976152;28;20034;-74
2023/09/06 04:52:44;;;;;;;16.45;13.35;;;19.30;88.10;;;;;;4952170;28;20051;-74
2023/09/06 04:55:12;;;;;;;15.43;12.55;;;19.30;88.10;;;;;;4950260;28;20023;-74
2023/09/06 04:57:39;;;;;;;13.93;12.20;;;19.20;88.10;;;;;;4942644;28;20046;-74
2023/09/06 05:00:30;;;;;;;15.80;12.45;;;19.20;88.10;;;;;;4949347;28;20032;-73
2023/09/06 05:02:57;;;;;;;16.33;12.98;;;19.20;88.10;;;;;;4940379;28;20694;-75
2023/09/06 05:05:24;;;;;;;14.13;11.30;;;19.20;88.10;;;;;;4957023;28;20020;-73
2023/09/06 05:07:50;;;;;;;13.52;11.32;;;19.20;88.10;;;;;;4941036;28;20138;-74
2023/09/06 05:10:17;;;;;;;14.75;12.15;;;19.20;88.00;;;;;;4931376;28;20474;-74
2023/09/06 05:12:43;;;;;;;16.00;11.75;;;19.20;87.80;;;;;;4938886;28;20057;-74
2023/09/06 05:15:12;;;;;;;17.75;12.88;;;19.20;87.70;;;;;;4939738;28;20340;-74
2023/09/06 05:17:38;;;;;;;15.98;12.65;;;19.20;87.60;;;;;;4954810;28;20284;-74
2023/09/06 05:20:30;;;;;;;14.07;11.55;;;19.20;87.70;;;;;;4942292;28;20070;-75
2023/09/06 05:22:58;;;;;;;13.52;10.90;;;19.30;87.70;;;;;;4937329;28;20105;-75
2023/09/06 05:25:24;;;;;;;13.68;11.07;;;19.30;87.70;;;;;;4940637;28;20082;-74
2023/09/06 05:27:54;;;;;;;13.68;11.85;;;19.30;87.70;;;;;;4952418;28;20554;-73
2023/09/06 05:30:20;;;;;;;15.25;12.40;;;19.30;87.60;;;;;;4942338;28;20015;-73
2023/09/06 05:32:45;;;;;;;13.95;11.60;;;19.30;87.50;;;;;;4939210;28;20047;-76
2023/09/06 05:35:11;;;;;;;13.40;11.82;;;19.30;87.50;;;;;;4938393;28;20104;-75
2023/09/06 05:37:39;;;;;;;17.20;12.95;;;19.40;87.50;;;;;;4945273;28;20031;-74
2023/09/06 05:40:06;;;;;;;15.27;13.00;;;19.50;87.20;;;;;;4943984;28;20608;-75
2023/09/06 05:42:31;;;;;;;13.57;12.02;;;19.50;87.10;;;;;;4950569;28;20540;-74
2023/09/06 05:44:57;;;;;;;18.52;13.10;;;19.50;87.10;;;;;;4963917;28;20113;-74
2023/09/06 05:47:23;;;;;;;15.70;13.25;;;19.50;87.10;;;;;;4954883;28;20133;-74
2023/09/06 05:49:52;;;;;;;17.08;14.23;;;19.50;87.10;;;;;;4966390;28;20033;-74
2023/09/06 05:52:17;;;;;;;15.07;13.38;;;19.60;86.90;;;;;;4958787;28;20035;-75
2023/09/06 05:54:44;;;;;;;14.02;11.95;;;19.60;87.00;;;;;;4961603;28;20139;-74
2023/09/06 05:57:10;;;;;;;13.48;11.95;;;19.60;87.00;;;;;;4957888;28;21286;-75
2023/09/06 05:59:36;;;;;;;15.75;12.45;;;19.70;87.00;;;;;;4963762;28;20049;-75
2023/09/06 06:02:02;;;;;;;31.70;15.90;;;19.70;87.00;;;;;;4961320;28;20074;-74
2023/09/06 06:04:28;;;;;;;16.58;12.93;;;19.80;86.90;;;;;;4958346;28;20054;-74
2023/09/06 06:06:54;;;;;;;17.95;12.50;;;19.80;86.90;;;;;;4961770;28;20031;-74
2023/09/06 06:09:21;;;;;;;19.58;13.25;;;19.80;86.90;;;;;;4957770;28;20034;-74
2023/09/06 06:11:47;;;;;;;18.90;14.05;;;19.90;86.80;;;;;;4962233;28;20061;-74
2023/09/06 06:14:13;;;;;;;18.17;14.20;;;19.90;86.80;;;;;;4956050;28;20019;-74
2023/09/06 06:16:39;;;;;;;14.38;11.73;;;20.00;86.80;;;;;;4959761;28;20099;-74
2023/09/06 06:19:05;;;;;;;17.33;13.00;;;20.00;86.80;;;;;;4963499;28;20035;-74
2023/09/06 06:21:31;;;;;;;15.90;12.15;;;20.10;86.70;;;;;;4960652;28;20035;-74
2023/09/06 06:23:57;;;;;;;14.77;11.60;;;20.10;86.70;;;;;;4939970;28;20508;-74
2023/09/06 06:26:23;;;;;;;14.50;12.60;;;20.20;86.60;;;;;;4939860;28;20023;-73
2023/09/06 06:28:49;;;;;;;13.18;11.38;;;20.30;86.50;;;;;;4943514;28;20062;-72
2023/09/06 06:31:15;;;;;;;15.48;13.23;;;20.40;86.50;;;;;;4939522;28;20700;-73
2023/09/06 06:33:43;;;;;;;14.80;13.38;;;20.50;86.30;;;;;;4960376;28;20133;-73
2023/09/06 06:36:09;;;;;;;14.43;11.80;;;20.50;86.20;;;;;;4959658;28;20359;-73
2023/09/06 06:38:34;;;;;;;13.20;11.63;;;20.60;86.10;;;;;;4956294;28;20039;-73
2023/09/06 06:41:00;;;;;;;12.68;10.50;;;20.70;86.00;;;;;;4963616;28;20688;-73
2023/09/06 06:43:27;;;;;;;14.85;11.70;;;20.80;85.80;;;;;;4963554;28;20051;-73
2023/09/06 06:45:56;;;;;;;15.20;12.13;;;20.80;85.60;;;;;;4965350;28;20096;-73
2023/09/06 06:48:22;;;;;;;12.73;11.20;;;21.00;85.40;;;;;;4961692;28;20031;-73
2023/09/06 06:50:48;;;;;;;15.25;13.35;;;21.00;85.20;;;;;;4957723;28;20039;-74
2023/09/06 06:53:14;;;;;;;13.77;11.45;;;21.10;84.80;;;;;;4968322;28;20050;-73
2023/09/06 06:55:40;;;;;;;13.32;10.98;;;21.30;84.70;;;;;;4968777;28;20457;-74
2023/09/06 06:58:07;;;;;;;12.48;11.10;;;21.40;84.40;;;;;;4960772;28;20428;-74
2023/09/06 07:00:34;;;;;;;14.10;11.63;;;21.60;83.70;;;;;;4965938;28;20023;-74
2023/09/06 07:03:00;;;;;;;12.95;10.65;;;21.70;83.10;;;;;;4956386;28;20043;-74
2023/09/06 07:05:26;;;;;;;13.75;12.07;;;21.90;82.50;;;;;;4944921;28;20054;-73
2023/09/06 07:07:52;;;;;;;13.55;12.10;;;22.10;81.90;;;;;;4955518;28;20039;-73
2023/09/06 07:10:17;;;;;;;15.52;11.45;;;22.20;81.10;;;;;;4960809;28;20038;-74
2023/09/06 07:12:43;;;;;;;14.02;12.48;;;22.40;81.00;;;;;;4965507;28;20427;-74
2023/09/06 07:15:10;;;;;;;17.15;13.18;;;22.60;80.60;;;;;;4961643;28;20525;-72
2023/09/06 07:17:36;;;;;;;14.13;12.48;;;22.80;80.30;;;;;;4972155;28;20039;-72
2023/09/06 07:20:05;;;;;;;16.05;14.25;;;22.90;80.20;;;;;;4966426;28;20139;-72
2023/09/06 07:22:30;;;;;;;15.43;13.60;;;23.10;79.40;;;;;;4962446;28;20737;-74
2023/09/06 07:24:56;;;;;;;17.27;14.70;;;23.20;79.20;;;;;;4961462;28;20110;-73
2023/09/06 07:27:22;;;;;;;14.02;12.15;;;23.40;78.30;;;;;;4961463;28;20122;-74
2023/09/06 07:29:48;;;;;;;15.02;13.43;;;23.50;78.00;;;;;;4962325;28;20607;-73
2023/09/06 07:32:13;;;;;;;15.43;13.27;;;23.70;77.40;;;;;;4961152;28;20034;-74
2023/09/06 07:34:39;;;;;;;14.63;13.13;;;23.80;77.10;;;;;;4958895;28;20712;-73
2023/09/06 07:37:05;;;;;;;18.35;14.50;;;24.00;76.70;;;;;;4963491;28;20035;-74
2023/09/06 07:39:30;;;;;;;15.90;14.30;;;24.10;76.00;;;;;;4963104;28;20030;-75
2023/09/06 07:41:57;;;;;;;16.33;14.73;;;24.20;75.60;;;;;;4957087;28;20748;-73
2023/09/06 07:44:22;;;;;;;15.75;14.15;;;24.40;75.60;;;;;;4961785;28;20050;-73
2023/09/06 07:46:48;;;;;;;18.10;16.25;;;24.60;74.30;;;;;;4965466;28;20062;-73
2023/09/06 07:49:16;;;;;;;17.77;15.80;;;24.70;73.50;;;;;;4962236;28;20049;-75
2023/09/06 07:51:42;;;;;;;18.77;16.85;;;24.80;72.80;;;;;;4961201;28;20142;-75
2023/09/06 07:54:08;;;;;;;15.85;14.23;;;24.80;71.10;;;;;;4962112;28;20035;-74
2023/09/06 07:56:33;;;;;;;18.08;16.17;;;24.90;72.10;;;;;;4964268;28;20042;-74
2023/09/06 07:58:59;;;;;;;15.90;14.32;;;25.00;71.60;;;;;;4962264;28;20064;-74
2023/09/06 08:01:25;;;;;;;17.35;15.65;;;25.10;71.60;;;;;;4963140;28;20023;-75
2023/09/06 08:03:51;;;;;;;18.42;16.55;;;25.20;71.60;;;;;;4962683;28;20043;-74
2023/09/06 08:06:17;;;;;;;18.60;15.25;;;25.50;71.10;;;;;;4963044;28;20057;-76
2023/09/06 08:08:43;;;;;;;15.98;14.35;;;25.60;70.60;;;;;;4960012;28;20058;-75
2023/09/06 08:11:10;;;;;;;14.75;12.45;;;25.80;69.60;;;;;;4962560;28;20105;-74
2023/09/06 08:13:37;;;;;;;15.07;11.68;;;26.00;68.20;;;;;;4961637;28;20039;-75
2023/09/06 08:16:03;;;;;;;11.73;9.98;;;26.10;66.70;;;;;;4966579;28;20231;-75
2023/09/06 08:18:29;;;;;;;12.65;9.82;;;26.30;66.50;;;;;;4967257;28;20614;-75
2023/09/06 08:20:55;;;;;;;14.95;10.52;;;26.50;66.40;;;;;;4956042;28;20034;-75
2023/09/06 08:23:20;;;;;;;11.43;6.78;;;26.60;66.00;;;;;;4961148;28;20051;-76
2023/09/06 08:25:46;;;;;;;10.00;6.95;;;26.70;65.20;;;;;;4963882;28;20039;-76
2023/09/06 08:28:15;;;;;;;9.32;4.85;;;26.80;64.30;;;;;;4956177;28;20059;-74
2023/09/06 08:30:42;;;;;;;11.57;4.85;;;26.90;62.90;;;;;;4962045;28;20042;-74
2023/09/06 08:33:08;;;;;;;7.60;4.95;;;27.10;62.00;;;;;;4951890;28;20899;-74
2023/09/06 08:35:33;;;;;;;8.40;4.80;;;27.20;62.20;;;;;;4945585;28;20031;-74
2023/09/06 08:37:59;;;;;;;9.25;5.30;;;27.40;62.00;;;;;;4945984;28;20043;-75
2023/09/06 08:40:25;;;;;;;11.23;5.35;;;27.50;62.30;;;;;;4949753;28;20040;-74
2023/09/06 08:42:53;;;;;;;11.60;5.00;;;27.50;59.90;;;;;;4943591;28;20047;-74
2023/09/06 08:45:24;;;;;;;8.18;4.03;;;27.60;60.40;;;;;;4950224;28;20028;-73
2023/09/06 08:47:50;;;;;;;7.78;4.68;;;27.70;59.90;;;;;;4944140;28;20071;-73
2023/09/06 08:50:17;;;;;;;6.45;4.68;;;27.90;58.30;;;;;;4937925;28;20015;-74
2023/09/06 08:52:44;;;;;;;9.18;5.28;;;28.10;57.90;;;;;;4949738;28;20126;-73
2023/09/06 08:55:11;;;;;;;7.57;4.72;;;28.10;58.20;;;;;;4963239;28;20039;-74
2023/09/06 08:57:38;;;;;;;10.52;5.30;;;28.10;59.20;;;;;;4998405;28;20043;-73
2023/09/06 09:00:05;;;;;;;9.88;5.50;;;28.30;58.90;;;;;;5043872;28;20632;-74
2023/09/06 09:02:30;;;;;;;8.88;5.30;;;28.40;57.10;;;;;;5017129;28;20103;-75
2023/09/06 09:04:56;;;;;;;9.02;5.05;;;28.30;58.00;;;;;;4948626;28;20036;-76
2023/09/06 09:07:21;;;;;;;9.68;5.45;;;28.50;57.80;;;;;;4962945;28;20043;-74
2023/09/06 09:10:01;;;;;;;9.23;5.43;;;28.50;58.30;;;;;;4943202;28;20035;-74
2023/09/06 09:12:31;;;;;;;8.55;5.10;;;28.30;57.80;;;;;;4958288;28;20531;-73
2023/09/06 09:14:58;;;;;;;10.18;4.90;;;28.50;58.30;;;;;;4974559;28;20041;-74
2023/09/06 09:17:28;;;;;;;7.97;4.78;;;28.60;57.80;;;;;;4992352;28;20033;-74
2023/09/06 09:20:00;;;;;;;11.48;4.93;;;28.80;57.00;;;;;;5042671;28;20029;-74
2023/09/06 09:22:30;;;;;;;8.33;4.87;;;29.00;56.90;;;;;;5006326;28;20075;-74
2023/09/06 09:25:00;;;;;;;9.57;4.65;;;29.00;56.10;;;;;;4966347;28;20103;-74
2023/09/06 09:27:28;;;;;;;8.15;4.95;;;29.00;56.10;;;;;;4963008;28;20059;-74
2023/09/06 09:30:00;;;;;;;9.07;4.80;;;29.20;56.30;;;;;;4946106;28;20038;-74
2023/09/06 09:32:26;;;;;;;11.23;4.53;;;29.30;56.30;;;;;;4950907;28;20075;-74
2023/09/06 09:34:52;;;;;;;9.02;5.00;;;29.50;55.80;;;;;;4940972;28;20062;-74
2023/09/06 09:37:22;;;;;;;7.72;4.30;;;29.40;54.90;;;;;;4937633;28;20043;-75
2023/09/06 09:39:48;;;;;;;8.95;4.18;;;29.50;55.20;;;;;;4940501;28;20027;-73
2023/09/06 09:42:14;;;;;;;8.57;4.10;;;29.50;55.40;;;;;;4982448;28;20046;-73
2023/09/06 09:44:41;;;;;;;8.55;4.47;;;29.60;54.80;;;;;;5040920;28;20025;-73
2023/09/06 09:47:14;;;;;;;10.77;4.05;;;29.50;55.60;;;;;;5027625;28;20051;-74
2023/09/06 09:49:41;;;;;;;9.32;4.43;;;29.70;55.80;;;;;;4966363;28;20031;-73
2023/09/06 09:52:14;;;;;;;10.48;4.85;;;29.90;55.30;;;;;;4963656;28;20062;-75
2023/09/06 09:54:47;;;;;;;10.20;4.67;;;29.50;56.70;;;;;;4937848;28;20035;-74
2023/09/06 09:57:14;;;;;;;8.73;5.88;;;29.60;57.00;;;;;;4941932;28;20031;-75
2023/09/06 09:59:42;;;;;;;8.77;5.80;;;29.80;57.60;;;;;;4941983;28;20042;-75
2023/09/06 10:02:15;;;;;;;10.55;4.70;;;30.00;57.00;;;;;;4955323;28;20747;-74
2023/09/06 10:04:44;;;;;;;10.65;7.13;;;30.00;57.90;;;;;;4966671;28;20049;-74
2023/09/06 10:07:14;;;;;;;12.13;7.25;;;30.10;57.70;;;;;;4959112;28;20587;-74
2023/09/06 10:09:40;;;;;;;13.07;6.55;;;30.00;56.90;;;;;;4961441;28;20106;-77
2023/09/06 10:12:11;;;;;;;11.27;7.53;;;30.00;57.50;;;;;;4961001;28;20038;-74
2023/09/06 10:14:41;;;;;;;16.17;7.63;;;30.10;56.10;;;;;;4959268;28;20047;-75
2023/09/06 10:17:07;;;;;;;9.50;6.75;;;30.00;55.80;;;;;;4959469;28;20041;-74
2023/09/06 10:19:34;;;;;;;11.20;6.90;;;29.90;57.50;;;;;;4962376;28;20058;-75
2023/09/06 10:22:07;;;;;;;12.48;7.25;;;30.10;57.40;;;;;;4963485;28;20525;-75
2023/09/06 10:24:35;;;;;;;11.20;5.53;;;30.10;55.70;;;;;;4963829;28;20106;-75
2023/09/06 10:27:02;;;;;;;12.52;7.28;;;29.90;56.90;;;;;;4964265;28;20038;-75
2023/09/06 10:29:30;;;;;;;12.30;6.63;;;30.00;55.90;;;;;;4966943;28;20034;-75
2023/09/06 10:32:04;;;;;;;11.35;6.82;;;30.10;55.80;;;;;;4965759;28;20043;-73
2023/09/06 10:34:33;;;;;;;11.88;5.32;;;29.80;56.30;;;;;;4962557;28;20035;-74
2023/09/06 10:37:02;;;;;;;8.90;5.65;;;30.10;56.70;;;;;;4966779;28;20058;-74
2023/09/06 10:39:29;;;;;;;9.50;4.90;;;30.50;54.10;;;;;;4964798;28;20085;-74
2023/09/06 10:42:15;;;;;;;8.40;4.60;;;30.40;54.30;;;;;;4966928;28;20129;-74
2023/09/06 10:44:53;;;;;;;7.55;4.15;;;30.60;55.20;;;;;;4964269;28;20049;-74
2023/09/06 10:47:36;;;;;;;8.48;4.18;;;31.00;53.90;;;;;;4965478;28;20042;-74
2023/09/06 10:50:14;;;;;;;8.17;4.23;;;31.00;53.20;;;;;;4965076;28;20023;-75
2023/09/06 10:52:58;;;;;;;8.35;4.20;;;31.10;53.40;;;;;;4961383;28;20291;-75
2023/09/06 10:55:26;;;;;;;9.35;5.00;;;31.40;54.00;;;;;;4957902;28;20101;-76
2023/09/06 10:58:06;;;;;;;24.33;18.05;;;31.50;54.20;;;;;;4961701;28;20027;-75
2023/09/06 11:00:34;;;;;;;9.02;4.90;;;31.60;53.60;;;;;;4962207;28;20069;-74
2023/09/06 11:03:21;;;;;;;10.30;4.90;;;31.80;52.20;;;;;;4967460;28;20130;-75
2023/09/06 11:05:52;;;;;;;7.93;3.60;;;31.60;52.60;;;;;;4969418;28;20527;-75
2023/09/06 11:08:24;;;;;;;8.02;3.97;;;31.70;52.20;;;;;;4963987;28;20047;-79
2023/09/06 11:10:50;;;;;;;7.05;3.42;;;31.70;51.10;;;;;;4964962;28;20034;-74
2023/09/06 11:13:16;;;;;;;10.38;3.88;;;31.70;50.90;;;;;;4957200;28;20055;-74
2023/09/06 11:15:43;;;;;;;7.45;3.63;;;31.70;52.10;;;;;;4965298;28;20084;-74
2023/09/06 11:18:09;;;;;;;7.28;3.22;;;31.90;52.10;;;;;;4965091;28;20027;-75
2023/09/06 11:20:35;;;;;;;8.05;3.30;;;32.10;50.80;;;;;;4981717;28;20035;-74
2023/09/06 11:23:03;;;;;;;6.00;3.50;;;32.10;50.00;;;;;;4960397;28;20043;-76
2023/09/06 11:25:30;;;;;;;8.27;3.50;;;32.10;49.40;;;;;;4963541;28;20789;-74
2023/09/06 11:27:59;;;;;;;9.18;3.40;;;32.10;48.80;;;;;;4964437;28;20058;-76
2023/09/06 11:30:26;;;;;;;5.63;3.17;;;32.10;48.30;;;;;;4966935;28;20047;-75
2023/09/06 11:32:56;;;;;;;5.90;3.60;;;32.00;48.20;;;;;;4958082;28;20051;-74
2023/09/06 11:35:27;;;;;;;5.47;3.00;;;31.90;49.30;;;;;;4964689;28;20038;-76
2023/09/06 11:37:54;;;;;;;6.55;2.92;;;32.10;49.70;;;;;;4963837;28;20031;-77
2023/09/06 11:40:21;;;;;;;4.90;2.90;;;32.20;49.40;;;;;;4942713;28;20023;-75
2023/09/06 11:43:02;;;;;;;9.57;3.30;;;32.30;48.20;;;;;;4963987;28;20054;-75
2023/09/06 11:45:31;;;;;;;9.88;3.10;;;32.20;48.50;;;;;;4953866;28;20066;-76
2023/09/06 11:48:04;;;;;;;5.68;3.22;;;32.30;49.00;;;;;;4951141;28;20083;-75
2023/09/06 11:50:31;;;;;;;6.35;3.03;;;32.30;47.70;;;;;;4941986;28;20031;-75
2023/09/06 11:53:02;;;;;;;6.13;3.05;;;32.50;47.10;;;;;;4941549;28;20040;-78
2023/09/06 11:55:32;;;;;;;6.00;2.83;;;32.60;46.40;;;;;;4942648;28;20055;-76
2023/09/06 11:57:58;;;;;;;8.10;3.03;;;32.50;47.20;;;;;;4952138;28;20468;-75
2023/09/06 12:00:36;;;;;;;5.63;2.95;;;32.50;46.50;;;;;;4962478;28;20106;-77
2023/09/06 12:03:07;;;;;;;4.60;2.95;;;32.60;47.00;;;;;;4953737;28;20043;-75
2023/09/06 12:05:40;;;;;;;7.07;3.20;;;32.80;46.70;;;;;;4942808;28;20476;-75
2023/09/06 12:08:07;;;;;;;7.18;3.00;;;32.70;45.20;;;;;;4943457;28;20031;-74
2023/09/06 12:10:34;;;;;;;5.75;3.22;;;32.60;45.90;;;;;;4940880;28;20039;-75
2023/09/06 12:13:01;;;;;;;7.80;3.00;;;32.50;46.70;;;;;;4972321;28;20035;-74
2023/09/06 12:15:28;;;;;;;5.15;2.92;;;32.30;47.50;;;;;;4963129;28;20027;-75
2023/09/06 12:17:54;;;;;;;7.22;3.67;;;32.40;46.90;;;;;;4948762;28;20093;-75
2023/09/06 12:20:23;;;;;;;4.95;3.25;;;32.50;46.60;;;;;;4948746;28;20110;-74
2023/09/06 12:22:50;;;;;;;7.35;3.03;;;32.60;47.00;;;;;;4952973;28;20126;-74
2023/09/06 12:25:16;;;;;;;6.50;2.90;;;32.60;47.10;;;;;;4946331;28;20031;-73
2023/09/06 12:27:43;;;;;;;5.53;3.10;;;32.60;47.20;;;;;;4941366;28;20044;-73
2023/09/06 12:30:09;;;;;;;9.13;3.30;;;32.70;47.80;;;;;;4943186;28;20053;-74
2023/09/06 12:32:37;;;;;;;7.13;3.00;;;32.70;46.50;;;;;;4953840;28;20043;-76
2023/09/06 12:35:05;;;;;;;5.43;3.55;;;32.60;47.50;;;;;;4971498;28;20026;-76
2023/09/06 12:37:30;;;;;;;6.05;3.13;;;32.50;47.60;;;;;;4954902;28;20031;-76